Coeur d'Alene, ID (83814)

5:19 AM PDT on September 23, 2014 (GMT -0700)
Downtown Coeur d'Alene | Change Station
CLOSE
Current Station
Personal Weather Station
Location: Coeur d'Alene, ID
Elevation: 2175 ft
Nearby Weather Stations

Elev 2175 ft 47.67 °N, 116.79 °W | Updated 9 minutes ago

Clear
Clear
62.1 °F
Feels Like 62.1 °F
N
3.1
Wind Variable Wind from North
Gusts 5.4 mph

Today
High -- | Low -- °F
--% Chance of Precip.
Yesterday
High -- | Low -- °F
Precip. -- in
6:35 AM 6:42 PM
Waning Crescent, 1% visible
Pressure 29.97 in
Visibility 10.0 miles
Clouds Clear
Dew Point 58 °F
Humidity 87%
Rainfall 0.05 in
Snow Depth 0 in , 2 in , 0 in
UV 0 out of 12
Pollen 6.10 out of 12
Air Quality Not available.
Flu Activity Not available.
METAR KCOE 231215Z AUTO 17005KT 10SM CLR 15/12 A2997 RMK AO1

More Conditions Fewer Conditions

Pressure 29.97 in
Visibility 10.0 miles
Clouds Clear
Dew Point 58 °F
Humidity 87%
Rainfall 0.05 in
Snow Depth 0 in , 2 in , 0 in
UV 0 out of 12
Pollen 6.10 out of 12
Air Quality Not available.
Flu Activity Not available.
METAR KCOE 231215Z AUTO 17005KT 10SM CLR 15/12 A2997 RMK AO1

More Conditions Fewer Conditions

10-Day Weather Forecast

Almanac

Astronomy

Sep. 23, 2014 Rise Set
Actual Time 6:35 AM PDT 6:42 PM PDT
Civil Twilight 6:04 AM PDT 7:13 PM PDT
Nautical Twilight 5:28 AM PDT 7:49 PM PDT
Astronomical Twilight 4:50 AM PDT 8:26 PM PDT
Moon 6:03 AM PDT 6:22 PM PDT
Length of Visible Light 13h 08m
Length of Day
12h 07m
Tomorrow will be 3m 25s shorter.
Waning Crescent, 1% of the Moon is Illuminated
Today
Waning Crescent
Sep 24
New
Oct 1
First Quarter
Oct 8
Full
Oct 15
Last Quarter

Today's Extremes

State Highs State Lows

Community

WunderPhotos

Upload Photos

1,755,659 photos uploaded!

WunderBlogs® & News

Nearby

Snow Depth

Station Depth Elevation
Crater Meadows 0 in 5960 ft
Franklin Basin 2 in 8170 ft
Sunset 0 in 5540 ft
Bear Basin 0 in 5350 ft
Crab Creek 113 in 6860 ft

Earthquake Activity

City Distance Mag. Time & Date
No recent earthquake activity has been reported nearby.
Minimum magnitude displayed is 2.5.

Coastal Water Temperatures

Place Temperature
No Stations Reporting

Nearby Weather Stations